createdAt,value
2022-11-24T00:01:15.418Z,3.60
2022-11-24T00:03:43.947Z,3.53
2022-11-24T00:06:14.584Z,3.17
2022-11-24T00:08:44.812Z,5.25
2022-11-24T00:11:15.187Z,2.90
2022-11-24T00:13:43.574Z,3.35
2022-11-24T00:16:13.633Z,3.42
2022-11-24T00:18:43.325Z,4.13
2022-11-24T00:21:11.399Z,4.57
2022-11-24T00:23:40.979Z,3.15
2022-11-24T00:26:10.780Z,4.10
2022-11-24T00:28:39.876Z,3.30
2022-11-24T00:31:17.534Z,3.03
2022-11-24T00:33:46.267Z,3.63
2022-11-24T00:36:14.499Z,2.60
2022-11-24T00:38:44.097Z,3.90
2022-11-24T00:41:12.162Z,3.35
2022-11-24T00:43:40.280Z,4.30
2022-11-24T00:46:08.271Z,2.40
2022-11-24T00:48:36.554Z,3.42
2022-11-24T00:51:06.210Z,3.35
2022-11-24T00:53:34.134Z,3.10
2022-11-24T00:56:04.039Z,3.38
2022-11-24T00:58:32.619Z,4.25
2022-11-24T01:01:04.676Z,3.08
2022-11-24T01:03:33.175Z,2.83
2022-11-24T01:06:05.533Z,3.42
2022-11-24T01:08:33.580Z,2.90
2022-11-24T01:11:13.807Z,2.92
2022-11-24T01:13:43.360Z,2.63
2022-11-24T01:16:19.723Z,2.78
2022-11-24T01:18:48.370Z,3.05
2022-11-24T01:21:17.141Z,4.63
2022-11-24T01:23:45.092Z,3.20
2022-11-24T01:26:16.436Z,2.83
2022-11-24T01:28:47.437Z,2.80
2022-11-24T01:31:16.585Z,2.65
2022-11-24T01:33:44.663Z,3.45
2022-11-24T01:36:12.812Z,2.65
2022-11-24T01:38:40.774Z,2.92
2022-11-24T01:41:12.361Z,3.03
2022-11-24T01:43:42.353Z,3.53
2022-11-24T01:46:18.233Z,2.33
2022-11-24T01:48:49.253Z,2.25
2022-11-24T01:51:21.504Z,2.47
2022-11-24T01:53:55.164Z,2.22
2022-11-24T01:56:23.537Z,1.95
2022-11-24T01:58:55.578Z,3.00
2022-11-24T02:01:23.727Z,3.20
2022-11-24T02:03:53.160Z,2.20
2022-11-24T02:06:24.572Z,3.10
2022-11-24T02:08:58.716Z,2.83
2022-11-24T02:11:30.253Z,2.97
2022-11-24T02:14:00.045Z,2.08
2022-11-24T02:16:28.305Z,3.05
2022-11-24T02:18:56.235Z,2.55
2022-11-24T02:21:24.160Z,2.20
2022-11-24T02:23:59.067Z,3.05
2022-11-24T02:26:35.932Z,2.53
2022-11-24T02:29:04.016Z,2.65
2022-11-24T02:31:32.074Z,2.28
2022-11-24T02:34:00.233Z,2.78
2022-11-24T02:36:28.144Z,2.33
2022-11-24T02:38:56.064Z,2.22
2022-11-24T02:41:26.557Z,2.05
2022-11-24T02:43:58.241Z,2.67
2022-11-24T02:46:26.199Z,2.30
2022-11-24T02:48:54.538Z,1.80
2022-11-24T02:51:22.967Z,1.90
2022-11-24T02:53:50.865Z,2.30
2022-11-24T02:56:18.711Z,2.25
2022-11-24T02:58:46.634Z,1.75
2022-11-24T03:01:15.923Z,2.40
2022-11-24T03:03:44.090Z,1.70
2022-11-24T03:06:12.079Z,2.50
2022-11-24T03:08:40.135Z,2.63
2022-11-24T03:11:08.089Z,2.08
2022-11-24T03:13:36.052Z,2.45
2022-11-24T03:16:04.008Z,2.45
2022-11-24T03:18:33.283Z,2.20
2022-11-24T03:21:01.393Z,2.50
2022-11-24T03:23:29.349Z,2.67
2022-11-24T03:26:07.075Z,1.77
2022-11-24T03:28:35.039Z,2.53
2022-11-24T03:31:03.365Z,1.83
2022-11-24T03:33:32.724Z,2.20
2022-11-24T03:36:00.735Z,2.50
2022-11-24T03:38:28.685Z,2.75
2022-11-24T03:40:56.670Z,3.00
2022-11-24T03:43:24.563Z,2.85
2022-11-24T03:45:52.794Z,4.65
2022-11-24T03:48:21.334Z,2.95
2022-11-24T03:50:56.967Z,2.67
2022-11-24T03:53:26.717Z,2.08
2022-11-24T03:55:55.049Z,2.67
2022-11-24T03:58:23.126Z,4.03
2022-11-24T04:00:52.269Z,3.33
2022-11-24T04:03:20.565Z,2.80
2022-11-24T04:05:49.164Z,2.70
2022-11-24T04:08:19.085Z,3.83
2022-11-24T04:10:51.147Z,2.63
2022-11-24T04:13:19.992Z,2.50
2022-11-24T04:15:48.414Z,2.90
2022-11-24T04:18:16.705Z,3.25
2022-11-24T04:20:44.966Z,3.58
2022-11-24T04:23:13.029Z,3.55
2022-11-24T04:25:43.772Z,2.22
2022-11-24T04:28:11.986Z,2.90
2022-11-24T04:30:44.643Z,2.97
2022-11-24T04:33:13.408Z,2.90
2022-11-24T04:35:41.363Z,3.22
2022-11-24T04:38:09.247Z,3.13
2022-11-24T04:40:37.834Z,3.28
2022-11-24T04:43:07.219Z,2.75
2022-11-24T04:45:35.119Z,3.33
2022-11-24T04:48:03.013Z,2.50
2022-11-24T04:50:31.089Z,2.85
2022-11-24T04:52:58.972Z,3.28
2022-11-24T04:55:26.887Z,2.92
2022-11-24T04:57:54.928Z,3.17
2022-11-24T05:00:24.372Z,2.65
2022-11-24T05:02:52.258Z,3.83
2022-11-24T05:05:20.347Z,3.10
2022-11-24T05:07:48.394Z,3.03
2022-11-24T05:10:33.908Z,2.80
2022-11-24T05:13:01.818Z,4.25
2022-11-24T05:15:31.305Z,3.47
2022-11-24T05:17:59.415Z,3.70
2022-11-24T05:20:27.440Z,2.75
2022-11-24T05:22:55.342Z,2.90
2022-11-24T05:25:23.196Z,4.43
2022-11-24T05:27:51.276Z,3.70
2022-11-24T05:30:19.237Z,3.42
2022-11-24T05:32:48.445Z,3.15
2022-11-24T05:35:17.026Z,3.03
2022-11-24T05:37:44.936Z,3.63
2022-11-24T05:40:12.887Z,2.78
2022-11-24T05:42:47.701Z,3.05
2022-11-24T05:45:18.517Z,3.10
2022-11-24T05:47:48.496Z,4.00
2022-11-24T05:50:19.293Z,3.50
2022-11-24T05:52:47.278Z,3.03
2022-11-24T05:55:16.745Z,3.20
2022-11-24T05:57:44.691Z,3.55
2022-11-24T06:00:13.455Z,4.72
2022-11-24T06:02:41.871Z,3.00
2022-11-24T06:05:11.443Z,5.18
2022-11-24T06:07:39.438Z,4.50
2022-11-24T06:10:07.823Z,4.00
2022-11-24T06:12:36.464Z,3.05
2022-11-24T06:15:04.839Z,3.35
2022-11-24T06:17:32.803Z,4.50
2022-11-24T06:20:00.727Z,3.45
2022-11-24T06:22:29.938Z,3.03
2022-11-24T06:24:57.927Z,3.10
2022-11-24T06:27:26.254Z,3.33
2022-11-24T06:29:54.355Z,4.15
2022-11-24T06:32:22.317Z,3.30
2022-11-24T06:34:50.510Z,4.50
2022-11-24T06:37:18.457Z,4.80
2022-11-24T06:39:48.437Z,3.47
2022-11-24T06:42:18.819Z,4.60
2022-11-24T06:44:47.202Z,3.60
2022-11-24T06:47:15.195Z,4.13
2022-11-24T06:49:43.149Z,3.00
2022-11-24T06:52:11.121Z,3.53
2022-11-24T06:54:39.064Z,3.53
2022-11-24T06:57:08.303Z,3.38
2022-11-24T06:59:38.537Z,3.88
2022-11-24T07:02:06.522Z,2.83
2022-11-24T07:04:34.921Z,3.45
2022-11-24T07:07:04.342Z,2.80
2022-11-24T07:09:32.306Z,3.00
2022-11-24T07:12:02.247Z,3.85
2022-11-24T07:14:31.811Z,3.03
2022-11-24T07:17:00.652Z,3.33
2022-11-24T07:19:28.589Z,3.67
2022-11-24T07:21:56.944Z,3.22
2022-11-24T07:24:24.937Z,5.18
2022-11-24T07:26:52.830Z,4.00
2022-11-24T07:29:20.716Z,3.03
2022-11-24T07:31:50.059Z,3.45
2022-11-24T07:34:18.041Z,3.80
2022-11-24T07:36:45.932Z,3.65
2022-11-24T07:39:14.107Z,4.82
2022-11-24T07:41:42.054Z,4.88
2022-11-24T07:44:10.038Z,3.42
2022-11-24T07:46:37.990Z,3.63
2022-11-24T07:49:07.269Z,5.03
2022-11-24T07:51:36.878Z,3.65
2022-11-24T07:54:05.049Z,3.90
2022-11-24T07:56:33.101Z,3.78
2022-11-24T07:59:01.298Z,3.85
2022-11-24T08:01:29.450Z,3.85
2022-11-24T08:03:57.452Z,3.20
2022-11-24T08:06:37.512Z,3.17
2022-11-24T08:09:07.539Z,3.50
2022-11-24T08:11:35.655Z,3.35
2022-11-24T08:14:03.579Z,2.58
2022-11-24T08:16:31.997Z,3.10
2022-11-24T08:18:59.981Z,3.28
2022-11-24T08:21:29.336Z,3.72
2022-11-24T08:23:58.093Z,2.50
2022-11-24T08:26:27.035Z,1.88
2022-11-24T08:28:57.120Z,1.67
2022-11-24T08:31:27.426Z,1.65
2022-11-24T08:33:57.180Z,1.92
2022-11-24T08:36:25.344Z,1.55
2022-11-24T08:38:57.499Z,1.13
2022-11-24T08:41:26.960Z,0.88
2022-11-24T08:43:54.990Z,0.90
2022-11-24T08:46:23.748Z,0.63
2022-11-24T08:48:52.906Z,0.80
2022-11-24T08:51:23.466Z,1.00
2022-11-24T08:53:58.242Z,0.90
2022-11-24T08:56:26.803Z,1.10
2022-11-24T08:58:55.056Z,1.15
2022-11-24T09:01:23.360Z,1.20
2022-11-24T09:03:52.235Z,1.00
2022-11-24T09:06:23.778Z,1.10
2022-11-24T09:08:52.327Z,1.02
2022-11-24T09:11:22.312Z,0.80
2022-11-24T09:13:50.662Z,0.90
2022-11-24T09:16:20.934Z,0.80
2022-11-24T09:18:55.119Z,0.70
2022-11-24T09:21:24.117Z,0.73
2022-11-24T09:23:53.222Z,0.70
2022-11-24T09:26:24.388Z,0.50
2022-11-24T09:28:55.028Z,0.60
2022-11-24T09:31:25.505Z,0.40
2022-11-24T09:33:54.235Z,0.70
2022-11-24T09:36:22.461Z,0.40
2022-11-24T09:38:50.424Z,0.50
2022-11-24T09:41:36.628Z,0.85
2022-11-24T09:44:10.130Z,0.63
2022-11-24T09:46:50.271Z,0.60
2022-11-24T09:49:25.191Z,0.40
2022-11-24T09:51:55.988Z,0.50
2022-11-24T09:54:27.590Z,0.65
2022-11-24T09:57:00.813Z,0.80
2022-11-24T09:59:29.462Z,0.60
2022-11-24T10:01:57.543Z,0.73
2022-11-24T10:04:28.936Z,0.77
2022-11-24T10:07:07.215Z,0.63
2022-11-24T10:09:47.093Z,0.73
2022-11-24T10:12:28.802Z,0.50
2022-11-24T10:15:17.061Z,0.68
2022-11-24T10:18:25.344Z,0.60
2022-11-24T10:21:03.009Z,0.50
2022-11-24T10:23:51.144Z,0.70
2022-11-24T10:26:20.865Z,0.63
2022-11-24T10:28:54.610Z,0.50
2022-11-24T10:31:31.027Z,0.45
2022-11-24T10:34:02.681Z,0.60
2022-11-24T10:36:39.069Z,0.55
2022-11-24T10:39:14.481Z,0.52
2022-11-24T10:41:49.117Z,0.70
2022-11-24T10:44:18.381Z,0.60
2022-11-24T10:46:46.450Z,0.70
2022-11-24T10:49:20.766Z,0.80
2022-11-24T10:52:01.339Z,0.95
2022-11-24T10:54:29.586Z,0.60
2022-11-24T10:56:57.695Z,0.68
2022-11-24T10:59:37.399Z,0.50
2022-11-24T11:02:29.446Z,0.68
2022-11-24T11:04:57.786Z,0.57
2022-11-24T11:07:27.400Z,0.75
2022-11-24T11:10:20.761Z,0.50
2022-11-24T11:12:48.745Z,0.80
2022-11-24T11:15:30.726Z,0.80
2022-11-24T11:18:01.038Z,0.73
2022-11-24T11:20:31.192Z,0.60
2022-11-24T11:23:01.398Z,1.10
2022-11-24T11:25:33.668Z,0.95
2022-11-24T11:28:27.783Z,1.15
2022-11-24T11:31:19.774Z,1.42
2022-11-24T11:34:03.698Z,1.55
2022-11-24T11:36:34.130Z,1.30
2022-11-24T11:39:03.496Z,1.73
2022-11-24T11:41:34.886Z,1.17
2022-11-24T11:44:16.106Z,1.55
2022-11-24T11:46:46.049Z,1.55
2022-11-24T11:49:14.808Z,2.08
2022-11-24T11:51:57.273Z,1.70
2022-11-24T11:54:39.165Z,1.27
2022-11-24T11:57:12.132Z,1.80
2022-11-24T11:59:56.279Z,1.50
2022-11-24T12:02:59.148Z,1.42
2022-11-24T12:05:35.903Z,1.20
2022-11-24T12:08:20.953Z,1.52
2022-11-24T12:10:57.417Z,2.00
2022-11-24T12:13:43.257Z,1.63
2022-11-24T12:16:21.702Z,2.05
2022-11-24T12:18:59.935Z,2.17
2022-11-24T12:24:09.188Z,1.75
2022-11-24T12:26:43.923Z,2.13
2022-11-24T12:29:38.229Z,1.55
2022-11-24T12:32:21.695Z,1.75
2022-11-24T12:34:56.943Z,1.60
2022-11-24T12:37:45.959Z,1.50
2022-11-24T12:40:18.583Z,1.73
2022-11-24T12:42:55.421Z,1.45
2022-11-24T12:45:29.501Z,1.30
2022-11-24T12:48:20.166Z,1.40
2022-11-24T12:50:51.354Z,1.63
2022-11-24T12:53:23.343Z,1.90
2022-11-24T12:55:51.799Z,1.38
2022-11-24T12:58:26.369Z,1.60
2022-11-24T13:01:13.011Z,2.28
2022-11-24T13:03:59.756Z,1.70
2022-11-24T13:06:36.633Z,1.60
2022-11-24T13:09:10.002Z,1.40
2022-11-24T13:11:41.451Z,1.52
2022-11-24T13:14:16.526Z,1.83
2022-11-24T13:19:44.219Z,1.30
2022-11-24T13:22:19.072Z,1.42
2022-11-24T13:24:47.003Z,1.90
2022-11-24T13:27:43.140Z,1.98
2022-11-24T13:30:51.910Z,1.83
2022-11-24T13:33:35.085Z,2.72
2022-11-24T13:36:52.524Z,1.85
2022-11-24T13:39:23.167Z,2.00
2022-11-24T13:42:41.495Z,1.95
2022-11-24T13:45:00.685Z,1.65
2022-11-24T13:47:34.543Z,2.40
2022-11-24T13:50:04.377Z,1.90
2022-11-24T13:52:51.846Z,2.33
2022-11-24T13:55:31.071Z,1.88
2022-11-24T13:58:03.388Z,1.77
2022-11-24T14:00:33.966Z,1.70
2022-11-24T14:03:04.676Z,1.98
2022-11-24T14:05:38.516Z,1.77
2022-11-24T14:08:08.493Z,2.17
2022-11-24T14:10:38.949Z,2.17
2022-11-24T14:13:27.003Z,2.50
2022-11-24T14:16:03.241Z,3.85
2022-11-24T14:18:32.412Z,1.80
2022-11-24T14:21:02.683Z,1.85
2022-11-24T14:23:30.634Z,2.00
2022-11-24T14:25:59.880Z,2.47
2022-11-24T14:28:30.186Z,1.35
2022-11-24T14:31:08.908Z,2.50
2022-11-24T14:33:37.272Z,2.60
2022-11-24T14:36:05.766Z,2.20
2022-11-24T14:38:34.636Z,2.30
2022-11-24T14:41:16.969Z,2.40
2022-11-24T14:43:45.113Z,2.22
2022-11-24T14:46:20.492Z,2.05
2022-11-24T14:48:50.301Z,2.13
2022-11-24T14:51:22.402Z,2.63
2022-11-24T14:53:53.401Z,2.00
2022-11-24T14:56:28.706Z,2.45
2022-11-24T14:58:57.938Z,2.28
2022-11-24T15:01:34.711Z,2.25
2022-11-24T15:04:32.863Z,2.55
2022-11-24T15:07:14.329Z,1.88
2022-11-24T15:09:51.313Z,3.17
2022-11-24T15:12:28.589Z,2.60
2022-11-24T15:14:59.627Z,2.60
2022-11-24T15:17:29.309Z,3.55
2022-11-24T15:20:00.852Z,2.67
2022-11-24T15:22:37.290Z,2.53
2022-11-24T15:25:26.693Z,2.20
2022-11-24T15:27:56.398Z,2.55
2022-11-24T15:30:24.483Z,1.92
2022-11-24T15:32:53.719Z,2.88
2022-11-24T15:35:22.750Z,2.40
2022-11-24T15:37:51.186Z,2.30
2022-11-24T15:40:20.063Z,2.90
2022-11-24T15:42:52.307Z,2.25
2022-11-24T15:45:22.940Z,2.35
2022-11-24T15:47:51.094Z,2.30
2022-11-24T15:50:19.477Z,2.05
2022-11-24T15:52:49.580Z,2.90
2022-11-24T15:55:22.286Z,2.53
2022-11-24T15:57:50.459Z,2.65
2022-11-24T16:00:21.939Z,3.28
2022-11-24T16:02:50.155Z,2.17
2022-11-24T16:05:19.006Z,3.20
2022-11-24T16:07:47.032Z,2.42
2022-11-24T16:10:24.024Z,2.17
2022-11-24T16:12:51.919Z,2.30
2022-11-24T16:15:21.360Z,3.08
2022-11-24T16:17:49.248Z,2.45
2022-11-24T16:20:17.403Z,2.00
2022-11-24T16:22:45.598Z,2.55
2022-11-24T16:25:14.490Z,1.90
2022-11-24T16:27:42.377Z,2.63
2022-11-24T16:30:11.979Z,3.05
2022-11-24T16:32:41.330Z,2.50
2022-11-24T16:35:09.423Z,2.25
2022-11-24T16:37:37.532Z,3.00
2022-11-24T16:40:06.230Z,3.40
2022-11-24T16:42:34.145Z,3.33
2022-11-24T16:45:02.149Z,3.20
2022-11-24T16:47:30.103Z,3.20
2022-11-24T16:49:59.379Z,3.22
2022-11-24T16:52:27.299Z,2.63
2022-11-24T16:54:55.217Z,2.92
2022-11-24T16:57:23.121Z,2.38
2022-11-24T16:59:51.048Z,2.72
2022-11-24T17:02:19.070Z,4.68
2022-11-24T17:04:47.268Z,3.85
2022-11-24T17:07:16.570Z,2.95
2022-11-24T17:09:44.594Z,2.65
2022-11-24T17:12:12.537Z,4.07
2022-11-24T17:14:40.414Z,3.67
2022-11-24T17:17:08.314Z,2.70
2022-11-24T17:19:37.415Z,3.70
2022-11-24T17:22:05.471Z,3.10
2022-11-24T17:24:34.988Z,4.47
2022-11-24T17:27:03.195Z,3.80
2022-11-24T17:29:31.075Z,3.80
2022-11-24T17:31:59.009Z,4.75
2022-11-24T17:34:27.064Z,5.32
2022-11-24T17:36:54.972Z,6.88
2022-11-24T17:39:25.165Z,7.43
2022-11-24T17:41:54.453Z,8.00
2022-11-24T17:44:22.377Z,5.93
2022-11-24T17:46:50.277Z,5.63
2022-11-24T17:49:18.414Z,4.95
2022-11-24T17:51:50.296Z,4.50
2022-11-24T17:54:47.207Z,4.30
2022-11-24T17:57:07.627Z,5.88
2022-11-24T17:59:35.482Z,5.95
2022-11-24T18:02:03.421Z,4.80
2022-11-24T18:04:31.436Z,5.55
2022-11-24T18:06:59.279Z,5.32
2022-11-24T18:09:27.407Z,5.57
2022-11-24T18:11:55.269Z,3.88
2022-11-24T18:14:24.669Z,4.30
2022-11-24T18:16:52.803Z,4.90
2022-11-24T18:19:21.273Z,4.55
2022-11-24T18:21:49.216Z,5.07
2022-11-24T18:24:21.163Z,4.07
2022-11-24T18:26:51.948Z,4.03
2022-11-24T18:29:19.858Z,4.70
2022-11-24T18:31:49.187Z,4.72
2022-11-24T18:34:17.165Z,4.65
2022-11-24T18:36:47.389Z,4.97
2022-11-24T18:39:17.954Z,4.72
2022-11-24T18:41:45.953Z,4.22
2022-11-24T18:44:14.173Z,3.97
2022-11-24T18:46:42.140Z,5.07
2022-11-24T18:49:11.403Z,4.40
2022-11-24T18:51:39.374Z,5.47
2022-11-24T18:54:07.322Z,6.63
2022-11-24T18:56:35.285Z,5.03
2022-11-24T18:59:03.367Z,7.22
2022-11-24T19:01:32.172Z,5.10
2022-11-24T19:04:02.806Z,11.27
2022-11-24T19:06:34.096Z,7.68
2022-11-24T19:09:03.386Z,6.53
2022-11-24T19:11:33.861Z,6.32
2022-11-24T19:14:02.596Z,4.78
2022-11-24T19:16:30.971Z,4.35
2022-11-24T19:19:00.324Z,4.18
2022-11-24T19:21:28.395Z,4.10
2022-11-24T19:24:04.190Z,5.03
2022-11-24T19:26:33.231Z,4.97
2022-11-24T19:29:01.372Z,4.85
2022-11-24T19:31:29.369Z,4.78
2022-11-24T19:33:59.592Z,4.20
2022-11-24T19:36:27.717Z,4.97
2022-11-24T19:38:58.332Z,6.43
2022-11-24T19:41:28.377Z,5.15
2022-11-24T19:43:57.889Z,4.68
2022-11-24T19:46:29.207Z,5.45
2022-11-24T19:48:59.752Z,5.10
2022-11-24T19:51:30.635Z,4.70
2022-11-24T19:54:00.243Z,4.93
2022-11-24T19:56:29.927Z,4.65
2022-11-24T19:58:58.563Z,4.53
2022-11-24T20:01:28.224Z,4.32
2022-11-24T20:03:58.837Z,5.03
2022-11-24T20:06:28.133Z,5.07
2022-11-24T20:08:58.050Z,4.05
2022-11-24T20:11:28.853Z,3.97
2022-11-24T20:13:57.884Z,3.80
2022-11-24T20:16:28.214Z,4.32
2022-11-24T20:18:57.387Z,3.67
2022-11-24T20:21:28.492Z,3.63
2022-11-24T20:23:59.043Z,3.67
2022-11-24T20:26:30.898Z,5.45
2022-11-24T20:29:00.603Z,4.07
2022-11-24T20:31:30.877Z,5.95
2022-11-24T20:34:00.224Z,4.53
2022-11-24T20:36:30.649Z,3.83
2022-11-24T20:39:01.513Z,6.13
2022-11-24T20:41:33.648Z,4.85
2022-11-24T20:44:04.988Z,3.90
2022-11-24T20:46:34.823Z,4.97
2022-11-24T20:49:03.826Z,4.13
2022-11-24T20:51:33.478Z,4.65
2022-11-24T20:54:03.878Z,5.10
2022-11-24T20:56:34.993Z,5.10
2022-11-24T20:59:03.671Z,4.50
2022-11-24T21:01:34.890Z,4.28
2022-11-24T21:04:03.879Z,4.72
2022-11-24T21:06:32.021Z,4.75
2022-11-24T21:09:03.732Z,5.32
2022-11-24T21:11:34.111Z,4.63
2022-11-24T21:14:02.245Z,4.68
2022-11-24T21:16:32.350Z,4.75
2022-11-24T21:19:02.487Z,5.57
2022-11-24T21:21:34.032Z,5.50
2022-11-24T21:24:02.461Z,7.07
2022-11-24T21:26:30.848Z,5.15
2022-11-24T21:29:00.237Z,5.18
2022-11-24T21:31:28.338Z,6.20
2022-11-24T21:33:56.748Z,6.25
2022-11-24T21:36:26.556Z,6.40
2022-11-24T21:38:56.200Z,5.38
2022-11-24T21:41:25.839Z,4.95
2022-11-24T21:43:55.879Z,4.80
2022-11-24T21:46:25.652Z,5.57
2022-11-24T21:48:53.643Z,5.10
2022-11-24T21:51:22.440Z,5.32
2022-11-24T21:53:50.412Z,5.70
2022-11-24T21:56:20.590Z,7.93
2022-11-24T21:58:50.387Z,5.93
2022-11-24T22:01:19.981Z,6.05
2022-11-24T22:03:49.308Z,7.28
2022-11-24T22:06:19.113Z,5.88
2022-11-24T22:08:47.826Z,6.25
2022-11-24T22:11:17.555Z,6.93
2022-11-24T22:13:46.500Z,7.35
2022-11-24T22:16:16.140Z,6.03
2022-11-24T22:18:45.438Z,6.40
2022-11-24T22:21:17.283Z,6.68
2022-11-24T22:23:46.460Z,6.00
2022-11-24T22:26:16.000Z,6.95
2022-11-24T22:28:45.613Z,7.00
2022-11-24T22:31:15.679Z,6.75
2022-11-24T22:33:43.857Z,8.27
2022-11-24T22:36:14.189Z,6.30
2022-11-24T22:38:42.737Z,5.38
2022-11-24T22:41:12.447Z,6.60
2022-11-24T22:43:41.406Z,6.30
2022-11-24T22:46:11.992Z,7.93
2022-11-24T22:48:40.693Z,7.13
2022-11-24T22:51:10.605Z,7.18
2022-11-24T22:53:40.199Z,7.75
2022-11-24T22:56:10.416Z,7.45
2022-11-24T22:58:39.296Z,9.77
2022-11-24T23:01:08.539Z,6.63
2022-11-24T23:03:37.294Z,7.57
2022-11-24T23:06:08.293Z,7.07
2022-11-24T23:08:37.001Z,8.15
2022-11-24T23:11:07.924Z,8.38
2022-11-24T23:13:36.275Z,7.03
2022-11-24T23:16:05.472Z,6.50
2022-11-24T23:18:33.781Z,7.43
2022-11-24T23:21:06.788Z,5.70
2022-11-24T23:23:35.343Z,5.32
2022-11-24T23:26:04.340Z,5.65
2022-11-24T23:28:33.711Z,5.30
2022-11-24T23:31:02.860Z,5.13
2022-11-24T23:33:30.917Z,5.18
2022-11-24T23:36:01.298Z,6.03
2022-11-24T23:38:30.317Z,5.45
2022-11-24T23:40:58.245Z,7.10
2022-11-24T23:43:26.456Z,5.30
2022-11-24T23:45:55.806Z,4.35
2022-11-24T23:48:23.957Z,4.78
2022-11-24T23:50:51.849Z,4.75
2022-11-24T23:53:20.335Z,6.38
2022-11-24T23:55:54.045Z,5.22
2022-11-24T23:58:22.002Z,5.30
